Time;durP1;ratioP1;P1;durP2;ratioP2;P2;SDS_P1;SDS_P2;PMS_P1;PMS_P2;Temp;Humidity;BMP_temperature;BMP_pressure;BME280_temperature;BME280_humidity;BME280_pressure;Samples;Min_cycle;Max_cycle;Signal;HPM_P1;HPM_P2
2022/11/19 00:01:48;;;;;;;34.53;14.57;;;6.00;99.90;;;;;;5094569;28;20028;-77
2022/11/19 00:04:14;;;;;;;37.08;16.20;;;5.90;99.90;;;;;;5094545;28;20020;-77
2022/11/19 00:06:39;;;;;;;35.72;16.45;;;5.90;99.90;;;;;;5091182;28;20464;-76
2022/11/19 00:09:05;;;;;;;40.05;16.45;;;5.90;99.90;;;;;;5087700;28;20038;-77
2022/11/19 00:14:15;;;;;;;38.60;15.80;;;5.90;99.90;;;;;;5093783;28;20043;-76
2022/11/19 00:16:42;;;;;;;38.67;17.73;;;5.80;99.90;;;;;;5094774;28;20028;-76
2022/11/19 00:19:09;;;;;;;36.72;16.20;;;5.90;99.90;;;;;;5093369;28;20456;-76
2022/11/19 00:21:35;;;;;;;38.15;16.75;;;5.90;99.90;;;;;;5094683;28;20032;-76
2022/11/19 00:24:00;;;;;;;36.70;16.90;;;5.90;99.90;;;;;;5091458;28;20035;-76
2022/11/19 00:26:26;;;;;;;32.50;15.77;;;5.90;99.90;;;;;;5094956;28;20440;-76
2022/11/19 00:28:53;;;;;;;43.20;19.77;;;5.80;99.90;;;;;;5094266;28;20406;-75
2022/11/19 00:31:18;;;;;;;35.83;16.52;;;5.80;99.90;;;;;;5094094;28;20040;-76
2022/11/19 00:33:45;;;;;;;38.78;17.35;;;5.80;99.90;;;;;;5092510;28;20094;-76
2022/11/19 00:36:13;;;;;;;36.53;17.50;;;5.80;99.90;;;;;;5094155;28;20030;-76
2022/11/19 00:38:38;;;;;;;37.55;15.85;;;5.70;99.90;;;;;;5094078;28;20043;-76
2022/11/19 00:41:04;;;;;;;34.03;16.95;;;5.70;99.90;;;;;;5091533;28;20016;-75
2022/11/19 00:43:48;;;;;;;29.70;14.05;;;5.70;99.90;;;;;;5093491;28;20035;-76
2022/11/19 00:46:33;;;;;;;36.53;15.85;;;5.60;99.90;;;;;;5089799;28;20406;-75
2022/11/19 00:48:59;;;;;;;30.15;14.02;;;5.50;99.90;;;;;;5084390;28;20024;-76
2022/11/19 00:51:29;;;;;;;34.78;13.93;;;5.50;99.90;;;;;;5092950;28;20042;-74
2022/11/19 00:53:55;;;;;;;34.25;15.73;;;5.50;99.90;;;;;;5092824;28;20035;-76
2022/11/19 00:56:23;;;;;;;32.50;14.73;;;5.50;99.90;;;;;;5089544;28;20058;-75
2022/11/19 00:58:49;;;;;;;33.65;15.88;;;5.50;99.90;;;;;;5084639;28;20023;-75
2022/11/19 01:01:16;;;;;;;35.33;14.52;;;5.50;99.90;;;;;;5090801;28;20396;-76
2022/11/19 01:03:44;;;;;;;35.03;16.02;;;5.50;99.90;;;;;;5093935;28;20442;-76
2022/11/19 01:06:11;;;;;;;36.63;17.55;;;5.50;99.90;;;;;;5093915;28;20094;-75
2022/11/19 01:08:36;;;;;;;34.00;16.58;;;5.50;99.90;;;;;;5093396;28;20032;-76
2022/11/19 01:11:04;;;;;;;35.88;16.45;;;5.50;99.90;;;;;;5092523;28;20345;-77
2022/11/19 01:13:36;;;;;;;33.92;15.15;;;5.50;99.90;;;;;;5091916;28;20044;-75
2022/11/19 01:16:22;;;;;;;35.92;14.70;;;5.60;99.90;;;;;;5092630;28;20020;-76
2022/11/19 01:18:49;;;;;;;34.28;15.55;;;5.50;99.90;;;;;;5092435;28;20036;-76
2022/11/19 01:21:19;;;;;;;30.15;14.18;;;5.50;99.90;;;;;;5092232;28;20032;-76
2022/11/19 01:23:45;;;;;;;36.05;15.15;;;5.40;99.90;;;;;;5085840;28;20118;-75
2022/11/19 01:26:12;;;;;;;31.35;14.68;;;5.40;99.90;;;;;;5093074;28;20349;-76
2022/11/19 01:28:41;;;;;;;35.38;15.85;;;5.40;99.90;;;;;;5091627;28;20379;-74
2022/11/19 01:31:15;;;;;;;33.92;16.67;;;5.40;99.90;;;;;;5090195;28;20040;-77
2022/11/19 01:33:41;;;;;;;35.05;16.45;;;5.50;99.90;;;;;;5083287;28;20051;-76
2022/11/19 01:36:28;;;;;;;35.10;16.55;;;5.50;99.90;;;;;;5093378;28;20031;-76
2022/11/19 01:38:55;;;;;;;37.03;15.73;;;5.60;99.90;;;;;;5091148;28;20036;-77
2022/11/19 01:41:22;;;;;;;37.15;16.70;;;5.60;99.90;;;;;;5092266;28;20028;-77
2022/11/19 01:43:50;;;;;;;38.80;16.70;;;5.60;99.90;;;;;;5092644;28;20052;-75
2022/11/19 01:46:25;;;;;;;40.30;17.60;;;5.60;99.90;;;;;;5093243;28;20103;-75
2022/11/19 01:49:01;;;;;;;35.10;17.08;;;5.60;99.90;;;;;;5090433;28;20028;-77
2022/11/19 01:51:33;;;;;;;36.55;17.05;;;5.60;99.90;;;;;;5089680;28;20027;-76
2022/11/19 01:54:04;;;;;;;37.33;16.05;;;5.60;99.90;;;;;;5076220;28;20032;-77
2022/11/19 01:56:30;;;;;;;36.15;17.70;;;5.50;99.90;;;;;;5078018;28;20555;-75
2022/11/19 01:59:04;;;;;;;36.63;16.52;;;5.60;99.90;;;;;;5091455;28;20032;-76
2022/11/19 02:01:31;;;;;;;36.15;16.05;;;5.50;99.90;;;;;;5091315;28;20024;-75
2022/11/19 02:03:59;;;;;;;37.70;18.25;;;5.50;99.90;;;;;;5090508;28;20025;-76
2022/11/19 02:06:29;;;;;;;41.13;18.08;;;5.50;99.90;;;;;;5086750;28;20034;-76
2022/11/19 02:08:55;;;;;;;42.53;18.17;;;5.40;99.90;;;;;;5092747;28;20032;-77
2022/11/19 02:11:41;;;;;;;36.95;17.23;;;5.40;99.90;;;;;;5087645;28;20032;-76
2022/11/19 02:14:40;;;;;;;39.47;17.60;;;5.40;99.90;;;;;;5092476;28;20024;-77
2022/11/19 02:17:29;;;;;;;38.80;17.63;;;5.40;99.90;;;;;;5092829;28;20024;-77
2022/11/19 02:20:13;;;;;;;35.55;15.55;;;5.40;99.90;;;;;;5091452;28;20409;-76
2022/11/19 02:23:02;;;;;;;32.55;17.08;;;5.30;99.90;;;;;;5113273;28;20106;-76
2022/11/19 02:25:37;;;;;;;35.05;17.23;;;5.20;99.90;;;;;;5097090;28;20028;-78
2022/11/19 02:28:26;;;;;;;35.10;17.05;;;5.20;99.90;;;;;;5092963;28;20020;-75
2022/11/19 02:30:59;;;;;;;36.90;18.20;;;5.20;99.90;;;;;;5092663;28;20067;-75
2022/11/19 02:33:57;;;;;;;38.63;17.52;;;5.10;99.90;;;;;;5104290;28;20023;-75
2022/11/19 02:36:29;;;;;;;37.00;18.13;;;5.10;99.90;;;;;;5083343;28;20071;-77
2022/11/19 02:39:19;;;;;;;37.83;18.42;;;5.10;99.90;;;;;;5096598;28;20019;-76
2022/11/19 02:42:17;;;;;;;31.20;15.43;;;5.10;99.90;;;;;;5095545;28;20040;-76
2022/11/19 02:45:07;;;;;;;37.08;17.60;;;5.00;99.90;;;;;;5096430;28;20016;-76
2022/11/19 02:47:39;;;;;;;37.03;17.42;;;5.00;99.90;;;;;;5095946;28;20028;-75
2022/11/19 02:50:14;;;;;;;;;;;5.00;99.90;;;;;;5094479;28;20174;-76
2022/11/19 02:52:42;;;;;;;39.50;19.05;;;4.90;99.90;;;;;;5076471;28;19926;-76
2022/11/19 02:55:15;;;;;;;35.45;17.17;;;4.90;99.90;;;;;;5079168;28;20122;-76
2022/11/19 02:58:06;;;;;;;40.60;18.73;;;4.90;99.90;;;;;;5096287;28;20043;-75
2022/11/19 03:06:17;;;;;;;36.65;18.15;;;4.70;99.90;;;;;;5095906;28;20035;-77
2022/11/19 03:08:45;;;;;;;37.53;17.33;;;4.70;99.90;;;;;;5094240;28;20422;-76
2022/11/19 03:11:27;;;;;;;39.65;19.77;;;4.70;99.90;;;;;;5094935;28;20016;-76
2022/11/19 03:17:12;;;;;;;41.92;19.05;;;4.60;99.90;;;;;;5095294;28;20041;-76
2022/11/19 03:19:48;;;;;;;42.88;20.38;;;4.60;99.90;;;;;;5095866;28;20035;-75
2022/11/19 03:22:23;;;;;;;41.30;20.00;;;4.60;99.90;;;;;;5096577;28;20020;-76
2022/11/19 03:25:06;;;;;;;41.90;20.38;;;4.60;99.90;;;;;;5095863;28;20024;-76
2022/11/19 03:27:38;;;;;;;41.40;21.63;;;4.60;99.90;;;;;;5097137;28;20029;-77
2022/11/19 03:30:05;;;;;;;40.47;18.83;;;4.60;99.90;;;;;;5095441;28;20024;-76
2022/11/19 03:32:49;;;;;;;40.78;18.48;;;4.60;99.90;;;;;;5095494;28;20040;-77
2022/11/19 03:35:24;;;;;;;41.47;20.35;;;4.60;99.90;;;;;;5093773;28;20024;-77
2022/11/19 03:37:52;;;;;;;34.50;18.08;;;4.60;99.90;;;;;;5093037;28;20069;-76
2022/11/19 03:40:19;;;;;;;38.67;19.42;;;4.60;99.90;;;;;;5093874;28;20532;-76
2022/11/19 03:42:49;;;;;;;38.63;19.00;;;4.60;99.90;;;;;;5095350;28;20092;-76
2022/11/19 03:45:18;;;;;;;37.88;17.98;;;4.60;99.90;;;;;;5098442;28;20027;-77
2022/11/19 03:47:47;;;;;;;37.28;18.67;;;4.60;99.90;;;;;;5092229;28;20023;-75
2022/11/19 03:50:37;;;;;;;36.47;18.63;;;4.60;99.90;;;;;;5093597;28;20024;-77
2022/11/19 03:53:02;;;;;;;35.35;16.77;;;4.60;99.90;;;;;;5093690;28;20415;-77
2022/11/19 03:55:48;;;;;;;35.78;17.40;;;4.60;99.90;;;;;;5093462;28;20056;-76
2022/11/19 03:58:13;;;;;;;32.88;16.90;;;4.60;99.90;;;;;;5092230;28;20362;-77
2022/11/19 04:00:39;;;;;;;34.83;18.27;;;4.50;99.90;;;;;;5091809;28;20044;-76
2022/11/19 04:03:04;;;;;;;31.65;15.43;;;4.60;99.90;;;;;;5092036;28;20078;-77
2022/11/19 04:05:30;;;;;;;34.70;16.65;;;4.50;99.90;;;;;;5093167;28;20337;-75
2022/11/19 04:07:56;;;;;;;32.95;16.23;;;4.50;99.90;;;;;;5094035;28;20023;-76
2022/11/19 04:10:21;;;;;;;40.08;17.92;;;4.40;99.90;;;;;;5086609;28;20055;-75
2022/11/19 04:12:47;;;;;;;34.22;16.67;;;4.40;99.90;;;;;;5092370;28;20047;-76
2022/11/19 04:15:13;;;;;;;33.70;15.80;;;4.40;99.90;;;;;;5093650;28;20024;-77
2022/11/19 04:17:39;;;;;;;33.42;15.70;;;4.40;99.90;;;;;;5092455;28;20032;-77
2022/11/19 04:20:07;;;;;;;33.58;16.83;;;4.40;99.90;;;;;;5093129;28;20059;-77
2022/11/19 04:22:33;;;;;;;30.40;14.52;;;4.30;99.90;;;;;;5093719;28;20042;-74
2022/11/19 04:24:58;;;;;;;35.15;15.65;;;4.30;99.90;;;;;;5092183;28;20024;-75
2022/11/19 04:27:24;;;;;;;26.92;14.23;;;4.20;99.90;;;;;;5090321;28;20055;-76
2022/11/19 04:29:50;;;;;;;28.58;14.43;;;4.20;99.90;;;;;;5095677;28;20417;-76
2022/11/19 04:32:15;;;;;;;29.08;14.57;;;4.20;99.90;;;;;;5095555;28;20115;-76
2022/11/19 04:34:41;;;;;;;29.27;12.73;;;4.10;99.90;;;;;;5092980;28;20055;-76
2022/11/19 04:37:06;;;;;;;31.63;14.85;;;4.10;99.90;;;;;;5093408;28;20077;-76
2022/11/19 04:39:32;;;;;;;30.58;14.15;;;4.10;99.90;;;;;;5093459;28;20047;-75
2022/11/19 04:42:01;;;;;;;30.15;14.10;;;4.00;99.90;;;;;;5091891;28;20016;-76
2022/11/19 04:44:26;;;;;;;25.95;13.55;;;4.00;99.90;;;;;;5089888;28;20024;-78
2022/11/19 04:46:52;;;;;;;30.65;14.27;;;4.10;99.90;;;;;;5092999;28;20023;-76
2022/11/19 04:49:17;;;;;;;28.48;13.68;;;4.10;99.90;;;;;;5092579;28;20139;-75
2022/11/19 04:51:43;;;;;;;32.05;14.48;;;4.10;99.90;;;;;;5091566;28;20030;-76
2022/11/19 04:54:08;;;;;;;30.52;14.68;;;4.00;99.90;;;;;;5091704;28;20028;-75
2022/11/19 04:56:35;;;;;;;29.17;13.70;;;4.00;99.90;;;;;;5094122;28;20031;-76
2022/11/19 04:59:01;;;;;;;26.83;12.50;;;4.00;99.90;;;;;;5091101;28;20040;-76
2022/11/19 05:01:27;;;;;;;26.85;11.95;;;3.90;99.90;;;;;;5092913;28;20012;-76
2022/11/19 05:03:52;;;;;;;28.50;13.45;;;3.90;99.90;;;;;;5090344;28;20076;-76
2022/11/19 05:06:18;;;;;;;29.15;14.57;;;3.90;99.90;;;;;;5091354;28;20020;-76
2022/11/19 05:08:43;;;;;;;28.05;13.10;;;3.80;99.90;;;;;;5091915;28;20448;-75
2022/11/19 05:11:09;;;;;;;29.27;14.43;;;3.80;99.90;;;;;;5094027;28;20024;-76
2022/11/19 05:13:35;;;;;;;27.02;13.65;;;3.70;99.90;;;;;;5091617;28;20475;-76
2022/11/19 05:16:00;;;;;;;26.83;12.90;;;3.70;99.90;;;;;;5092087;28;20031;-75
2022/11/19 05:18:26;;;;;;;29.00;12.07;;;3.60;99.90;;;;;;5091745;28;20476;-76
2022/11/19 05:20:51;;;;;;;25.83;11.82;;;3.50;99.90;;;;;;5090717;28;20027;-76
2022/11/19 05:23:17;;;;;;;27.00;12.38;;;3.50;99.90;;;;;;5089715;28;20020;-76
2022/11/19 05:25:43;;;;;;;28.60;13.05;;;3.40;99.90;;;;;;5091547;28;20096;-75
2022/11/19 05:28:08;;;;;;;28.08;12.18;;;3.40;99.90;;;;;;5090589;28;20020;-76
2022/11/19 05:30:34;;;;;;;27.85;12.05;;;3.30;99.90;;;;;;5091091;28;20028;-76
2022/11/19 05:33:00;;;;;;;26.63;12.65;;;3.30;99.90;;;;;;5089271;28;20028;-77
2022/11/19 05:35:25;;;;;;;23.23;10.25;;;3.20;99.90;;;;;;5091795;28;20094;-77
2022/11/19 05:37:51;;;;;;;25.48;11.13;;;3.30;99.90;;;;;;5091344;28;20048;-76
2022/11/19 05:40:17;;;;;;;27.33;11.60;;;3.30;99.90;;;;;;5092152;28;20047;-77
2022/11/19 05:42:43;;;;;;;25.45;10.32;;;3.30;99.90;;;;;;5090921;28;20031;-75
2022/11/19 05:45:09;;;;;;;24.13;10.20;;;3.20;99.90;;;;;;5091488;28;20024;-76
2022/11/19 05:47:35;;;;;;;25.05;10.93;;;3.20;99.90;;;;;;5092091;28;20531;-77
2022/11/19 05:50:01;;;;;;;27.42;11.27;;;3.20;99.90;;;;;;5091537;28;20012;-76
2022/11/19 05:52:27;;;;;;;23.20;10.40;;;3.20;99.90;;;;;;5090985;28;20418;-77
2022/11/19 05:54:53;;;;;;;22.13;10.18;;;3.10;99.90;;;;;;5089871;28;20063;-75
2022/11/19 05:57:18;;;;;;;23.27;10.15;;;3.10;99.90;;;;;;5090985;28;20031;-77
2022/11/19 05:59:44;;;;;;;23.77;9.98;;;3.10;99.90;;;;;;5091685;28;20040;-76
2022/11/19 06:02:09;;;;;;;26.30;11.40;;;3.00;99.90;;;;;;5085037;28;20081;-76
2022/11/19 06:04:35;;;;;;;23.23;10.82;;;3.00;99.90;;;;;;5090617;28;20073;-76
2022/11/19 06:07:00;;;;;;;25.80;10.07;;;2.90;99.90;;;;;;5082401;28;20061;-75
2022/11/19 06:09:26;;;;;;;28.20;11.05;;;2.90;99.90;;;;;;5091997;28;20020;-76
2022/11/19 06:11:51;;;;;;;25.15;10.98;;;2.90;99.90;;;;;;5091630;28;20023;-75
2022/11/19 06:14:23;;;;;;;21.98;9.00;;;2.90;99.90;;;;;;5096512;28;20157;-76
2022/11/19 06:16:53;;;;;;;21.95;9.35;;;2.90;99.90;;;;;;5084516;28;20024;-76
2022/11/19 06:19:20;;;;;;;23.20;9.55;;;2.80;99.90;;;;;;5091861;28;20464;-75
2022/11/19 06:21:46;;;;;;;22.20;9.10;;;2.80;99.90;;;;;;5097238;28;20024;-75
2022/11/19 06:24:12;;;;;;;26.63;10.95;;;2.80;99.90;;;;;;5094466;28;20020;-76
2022/11/19 06:26:38;;;;;;;25.70;10.43;;;2.70;99.90;;;;;;5087463;28;20341;-76
2022/11/19 06:29:04;;;;;;;22.40;9.93;;;2.70;99.90;;;;;;5100833;28;20050;-76
2022/11/19 06:31:30;;;;;;;24.58;10.57;;;2.70;99.90;;;;;;5103555;28;20047;-75
2022/11/19 06:33:56;;;;;;;22.05;8.70;;;2.60;99.90;;;;;;5095832;28;20032;-75
2022/11/19 06:36:22;;;;;;;25.92;10.32;;;2.60;99.90;;;;;;5096499;28;20065;-75
2022/11/19 06:38:47;;;;;;;21.38;8.32;;;2.60;99.90;;;;;;5096471;28;20040;-75
2022/11/19 06:41:13;;;;;;;25.88;10.90;;;2.60;99.90;;;;;;5096674;28;20047;-75
2022/11/19 06:43:39;;;;;;;19.65;8.57;;;2.60;99.90;;;;;;5094147;28;20028;-75
2022/11/19 06:46:04;;;;;;;22.92;8.50;;;2.50;99.90;;;;;;5095564;28;20027;-75
2022/11/19 06:48:30;;;;;;;23.55;10.40;;;2.50;99.90;;;;;;5095020;28;20032;-75
2022/11/19 06:50:56;;;;;;;21.42;8.80;;;2.50;99.90;;;;;;5090244;28;20081;-75
2022/11/19 06:53:21;;;;;;;23.73;9.40;;;2.50;99.90;;;;;;5095766;28;20084;-75
2022/11/19 06:55:47;;;;;;;22.92;9.80;;;2.50;99.90;;;;;;5096131;28;20024;-75
2022/11/19 06:58:14;;;;;;;20.75;8.90;;;2.50;99.90;;;;;;5105870;28;20024;-76
2022/11/19 07:00:40;;;;;;;24.85;10.00;;;2.50;99.90;;;;;;5087497;28;20040;-75
2022/11/19 07:03:05;;;;;;;27.65;10.30;;;2.40;99.90;;;;;;5095012;28;20044;-76
2022/11/19 07:05:31;;;;;;;24.55;9.77;;;2.40;99.90;;;;;;5095674;28;20444;-76
2022/11/19 07:07:56;;;;;;;24.33;10.68;;;2.30;99.90;;;;;;5090638;28;20448;-75
2022/11/19 07:10:22;;;;;;;26.88;11.15;;;2.30;99.90;;;;;;5082359;28;20470;-75
2022/11/19 07:12:48;;;;;;;24.35;10.82;;;2.30;99.90;;;;;;5095929;28;20028;-75
2022/11/19 07:15:13;;;;;;;25.33;10.55;;;2.30;99.90;;;;;;5096033;28;20411;-75
2022/11/19 07:17:40;;;;;;;20.85;8.82;;;2.30;99.90;;;;;;5079371;28;20399;-75
2022/11/19 07:20:06;;;;;;;21.83;9.27;;;2.20;99.90;;;;;;5094991;28;20208;-75
2022/11/19 07:22:32;;;;;;;22.27;9.38;;;2.20;99.90;;;;;;5101756;28;20072;-75
2022/11/19 07:24:57;;;;;;;25.15;10.73;;;2.20;99.90;;;;;;5099453;28;20032;-76
2022/11/19 07:27:23;;;;;;;21.60;9.30;;;2.20;99.90;;;;;;5104152;28;20091;-75
2022/11/19 07:29:48;;;;;;;24.70;10.25;;;2.20;99.90;;;;;;5095567;28;20024;-75
2022/11/19 07:32:14;;;;;;;23.20;10.25;;;2.20;99.90;;;;;;5098729;28;20091;-76
2022/11/19 07:34:39;;;;;;;24.52;9.85;;;2.20;99.90;;;;;;5092879;28;20063;-76
2022/11/19 07:37:05;;;;;;;23.77;9.77;;;2.20;99.90;;;;;;5095539;28;20028;-76
2022/11/19 07:39:31;;;;;;;26.13;9.63;;;2.30;99.90;;;;;;5093591;28;20127;-76
2022/11/19 07:44:40;;;;;;;24.10;10.05;;;2.20;99.90;;;;;;5085482;28;20470;-76
2022/11/19 07:47:07;;;;;;;23.02;10.23;;;2.30;99.90;;;;;;5095611;28;20032;-76
2022/11/19 07:49:32;;;;;;;21.65;9.07;;;2.30;99.90;;;;;;5093767;28;20455;-76
2022/11/19 07:51:58;;;;;;;22.30;10.18;;;2.30;99.90;;;;;;5095093;28;20028;-76
2022/11/19 07:54:23;;;;;;;24.83;10.32;;;2.30;99.90;;;;;;5094435;28;20525;-76
2022/11/19 07:56:49;;;;;;;25.15;10.23;;;2.40;99.90;;;;;;5095483;28;20027;-76
2022/11/19 07:59:15;;;;;;;24.27;10.32;;;2.40;99.90;;;;;;5094876;28;20516;-76
2022/11/19 08:01:41;;;;;;;22.48;9.65;;;2.40;99.90;;;;;;5095264;28;20102;-76
2022/11/19 08:04:06;;;;;;;22.00;9.32;;;2.40;99.90;;;;;;5092482;28;20020;-77
2022/11/19 08:06:33;;;;;;;24.42;10.13;;;2.40;99.90;;;;;;5094878;28;20161;-76
2022/11/19 08:09:00;;;;;;;21.73;9.40;;;2.40;99.90;;;;;;5085315;28;20028;-76
2022/11/19 08:11:26;;;;;;;22.67;9.45;;;2.40;99.90;;;;;;5079298;28;20085;-77
2022/11/19 08:13:52;;;;;;;25.10;10.18;;;2.40;99.90;;;;;;5097167;28;20028;-76
2022/11/19 08:19:10;;;;;;;22.42;9.30;;;2.30;99.90;;;;;;5094261;28;20169;-76
2022/11/19 08:21:39;;;;;;;22.40;9.70;;;2.30;99.90;;;;;;5094393;28;20072;-75
2022/11/19 08:24:05;;;;;;;24.42;9.85;;;2.30;99.90;;;;;;5098585;28;20019;-76
2022/11/19 08:26:31;;;;;;;22.70;10.38;;;2.30;99.90;;;;;;5103004;28;20024;-76
2022/11/19 08:28:56;;;;;;;22.83;9.55;;;2.20;99.90;;;;;;5094079;28;20716;-76
2022/11/19 08:31:22;;;;;;;24.80;9.40;;;2.20;99.90;;;;;;5101976;28;20089;-76
2022/11/19 08:33:48;;;;;;;23.33;10.40;;;2.10;99.90;;;;;;5094509;28;20044;-76
2022/11/19 08:36:15;;;;;;;28.17;11.13;;;2.10;99.90;;;;;;5093611;28;20020;-76
2022/11/19 08:38:40;;;;;;;24.27;9.82;;;2.00;99.90;;;;;;5094107;28;20028;-76
2022/11/19 08:43:50;;;;;;;22.77;9.20;;;2.00;99.90;;;;;;5084534;28;20071;-76
2022/11/19 08:46:15;;;;;;;24.40;11.88;;;2.00;99.90;;;;;;5092926;28;20055;-76
2022/11/19 08:48:41;;;;;;;25.02;10.15;;;1.90;99.90;;;;;;5092536;28;20028;-76
2022/11/19 08:51:09;;;;;;;27.75;11.10;;;1.90;99.90;;;;;;5093488;28;20030;-76
2022/11/19 08:53:35;;;;;;;31.17;13.45;;;1.90;99.90;;;;;;5092267;28;20127;-77
2022/11/19 08:56:00;;;;;;;24.67;10.45;;;1.90;99.90;;;;;;5099174;28;20016;-76
2022/11/19 08:58:26;;;;;;;25.90;12.02;;;1.90;99.90;;;;;;5086161;28;20039;-77
2022/11/19 09:00:52;;;;;;;24.75;11.10;;;1.90;99.90;;;;;;5092659;28;20036;-77
2022/11/19 09:03:18;;;;;;;25.77;11.65;;;2.00;99.90;;;;;;5087584;28;20024;-76
2022/11/19 09:05:45;;;;;;;27.55;12.25;;;2.00;99.90;;;;;;5090524;28;20023;-77
2022/11/19 09:08:11;;;;;;;22.95;9.55;;;2.10;99.90;;;;;;5083272;28;20507;-76
2022/11/19 09:10:37;;;;;;;25.75;11.88;;;2.10;99.90;;;;;;5092048;28;20103;-76
2022/11/19 09:13:04;;;;;;;26.58;11.93;;;2.20;99.90;;;;;;5093529;28;20031;-76
2022/11/19 09:15:30;;;;;;;26.83;11.05;;;2.20;99.90;;;;;;5083486;28;20095;-77
2022/11/19 09:17:55;;;;;;;22.60;10.27;;;2.40;99.90;;;;;;5092124;28;20424;-77
2022/11/19 09:20:21;;;;;;;26.92;11.13;;;2.50;99.90;;;;;;5093468;28;20051;-76
2022/11/19 09:22:46;;;;;;;23.83;9.75;;;2.70;99.90;;;;;;5092269;28;20028;-76
2022/11/19 09:25:12;;;;;;;25.83;10.23;;;2.80;99.90;;;;;;5091972;28;20027;-76
2022/11/19 09:27:38;;;;;;;27.10;10.80;;;3.10;99.90;;;;;;5091752;28;20059;-76
2022/11/19 09:30:05;;;;;;;24.00;10.48;;;3.40;99.90;;;;;;5091831;28;20418;-76
2022/11/19 09:32:31;;;;;;;21.83;9.52;;;3.90;99.90;;;;;;5085760;28;20041;-76
2022/11/19 09:34:57;;;;;;;20.58;8.82;;;4.30;99.90;;;;;;5083523;28;20038;-76
2022/11/19 09:37:22;;;;;;;19.92;8.82;;;4.70;99.90;;;;;;5088225;28;20449;-75
2022/11/19 09:39:48;;;;;;;22.75;8.98;;;5.00;99.90;;;;;;5089826;28;20039;-75
2022/11/19 09:42:45;;;;;;;21.70;9.05;;;5.50;99.90;;;;;;5085241;28;20506;-75
2022/11/19 09:45:25;;;;;;;19.70;8.85;;;6.00;99.90;;;;;;5092369;28;20355;-75
2022/11/19 09:47:57;;;;;;;19.50;9.50;;;6.50;99.90;;;;;;5086683;28;20509;-76
2022/11/19 09:50:27;;;;;;;20.23;9.38;;;7.00;99.90;;;;;;5084835;28;20099;-76
2022/11/19 09:52:52;;;;;;;18.52;8.38;;;7.50;99.90;;;;;;5089605;28;20032;-76
2022/11/19 09:55:46;;;;;;;23.48;12.38;;;7.90;99.90;;;;;;5086710;28;20024;-76
2022/11/19 09:58:14;;;;;;;21.20;10.80;;;8.30;99.90;;;;;;5084342;28;20107;-76
2022/11/19 10:00:41;;;;;;;17.60;8.73;;;8.60;99.90;;;;;;5082317;28;20028;-76
2022/11/19 10:03:14;;;;;;;20.67;10.07;;;8.70;99.90;;;;;;5095471;28;20491;-76
2022/11/19 10:05:52;;;;;;;19.83;9.32;;;8.90;99.20;;;;;;5075972;28;20020;-75
2022/11/19 10:08:55;;;;;;;20.05;9.80;;;9.00;98.90;;;;;;5099187;28;20019;-76
2022/11/19 10:11:35;;;;;;;18.23;8.80;;;9.20;98.50;;;;;;5077370;28;20020;-76
2022/11/19 10:14:12;;;;;;;19.27;9.10;;;9.20;98.20;;;;;;5077227;28;20009;-76
2022/11/19 10:17:15;;;;;;;21.35;11.45;;;9.20;98.10;;;;;;5092700;28;20024;-76
2022/11/19 10:19:44;;;;;;;17.83;9.07;;;9.20;97.80;;;;;;5085827;28;20051;-75
2022/11/19 10:22:32;;;;;;;15.93;8.10;;;9.30;98.60;;;;;;5087380;28;20024;-75
2022/11/19 10:25:22;;;;;;;21.15;9.15;;;9.60;97.30;;;;;;5091476;28;20020;-75
2022/11/19 10:27:56;;;;;;;16.23;8.65;;;9.70;97.00;;;;;;5094315;28;20141;-76
2022/11/19 10:30:24;;;;;;;19.85;9.65;;;9.60;96.60;;;;;;5091614;28;20024;-75
2022/11/19 10:33:15;;;;;;;19.98;10.13;;;9.60;96.30;;;;;;5098463;28;20044;-75
2022/11/19 10:35:57;;;;;;;17.67;8.18;;;9.50;97.10;;;;;;5092216;28;20115;-76
2022/11/19 10:38:23;;;;;;;;;;;9.60;96.50;;;;;;5093552;28;20020;-76
2022/11/19 10:41:00;;;;;;;18.75;8.32;;;9.60;96.80;;;;;;5091106;28;19912;-76
2022/11/19 10:43:31;;;;;;;19.17;8.98;;;9.70;96.90;;;;;;5090930;28;20116;-76
2022/11/19 10:45:59;;;;;;;17.85;8.75;;;9.90;96.10;;;;;;5077491;28;20032;-76
2022/11/19 10:48:31;;;;;;;18.50;7.80;;;10.10;96.00;;;;;;5094207;28;20115;-76
2022/11/19 10:50:58;;;;;;;16.90;8.32;;;10.20;95.40;;;;;;5091741;28;20344;-75
2022/11/19 10:53:35;;;;;;;17.48;8.93;;;10.30;95.50;;;;;;5092427;28;20024;-76
2022/11/19 10:56:38;;;;;;;21.65;9.63;;;10.50;94.90;;;;;;5086656;28;20028;-76
2022/11/19 10:59:19;;;;;;;17.52;8.48;;;10.60;94.70;;;;;;5088312;28;20032;-76
2022/11/19 11:01:47;;;;;;;17.65;8.15;;;10.60;94.20;;;;;;5093668;28;20032;-76
2022/11/19 11:04:25;;;;;;;16.52;7.80;;;10.70;94.00;;;;;;5085167;28;20032;-76
2022/11/19 11:06:59;;;;;;;16.88;8.07;;;10.70;93.50;;;;;;5088369;28;20161;-76
2022/11/19 11:09:34;;;;;;;13.48;6.68;;;10.70;93.70;;;;;;5096340;28;20024;-76
2022/11/19 11:15:20;;;;;;;15.57;7.60;;;10.50;92.90;;;;;;5085305;28;20082;-79
2022/11/19 11:17:58;;;;;;;15.25;7.30;;;10.30;93.40;;;;;;5094074;28;20063;-79
2022/11/19 11:20:27;;;;;;;14.07;6.97;;;10.30;93.50;;;;;;5091793;28;20036;-80
2022/11/19 11:23:18;;;;;;;14.93;6.70;;;10.30;93.00;;;;;;5083437;28;20052;-79
2022/11/19 11:26:05;;;;;;;15.27;7.63;;;10.30;93.30;;;;;;5092928;28;20032;-79
2022/11/19 11:28:32;;;;;;;14.23;6.55;;;10.30;92.90;;;;;;5083965;28;20039;-80
2022/11/19 11:31:09;;;;;;;15.15;6.78;;;10.20;92.90;;;;;;5093689;28;20120;-77
2022/11/19 11:33:41;;;;;;;13.65;6.85;;;10.10;93.20;;;;;;5088182;28;20067;-77
2022/11/19 11:36:23;;;;;;;14.00;6.68;;;10.10;92.70;;;;;;5095154;28;20127;-77
2022/11/19 11:38:53;;;;;;;12.15;6.22;;;10.00;92.30;;;;;;5093014;28;20178;-78
2022/11/19 11:41:21;;;;;;;12.48;6.20;;;10.00;92.40;;;;;;5095181;28;20024;-77
2022/11/19 11:44:15;;;;;;;13.88;6.70;;;10.00;93.00;;;;;;5092953;28;20036;-77
2022/11/19 11:46:43;;;;;;;13.85;7.10;;;10.00;92.80;;;;;;5094811;28;20043;-77
2022/11/19 11:49:27;;;;;;;15.20;6.93;;;10.20;93.30;;;;;;5084318;28;20024;-77
2022/11/19 11:52:10;;;;;;;15.38;7.43;;;10.30;92.50;;;;;;5092817;28;20065;-78
2022/11/19 11:54:37;;;;;;;14.88;6.90;;;10.30;92.80;;;;;;5088109;28;20024;-78
2022/11/19 11:57:18;;;;;;;11.68;5.97;;;10.30;92.60;;;;;;5100892;28;20368;-76
2022/11/19 11:59:45;;;;;;;16.77;7.47;;;10.30;92.30;;;;;;5080535;28;20175;-78
2022/11/19 12:02:28;;;;;;;8.05;4.20;;;10.40;92.20;;;;;;5092471;28;20073;-79
2022/11/19 12:04:55;;;;;;;9.55;4.70;;;10.40;91.10;;;;;;5089037;28;20484;-74
2022/11/19 12:07:47;;;;;;;13.65;6.53;;;10.40;91.30;;;;;;5093979;28;20038;-75
2022/11/19 12:10:31;;;;;;;11.25;5.20;;;10.40;91.50;;;;;;5087339;28;20464;-75
2022/11/19 12:12:57;;;;;;;13.65;5.68;;;10.30;90.90;;;;;;5089988;28;20572;-76
2022/11/19 12:15:43;;;;;;;12.35;5.88;;;10.10;90.70;;;;;;5078727;28;20020;-77
2022/11/19 12:18:19;;;;;;;16.02;6.55;;;9.80;91.10;;;;;;5092465;28;20016;-77
2022/11/19 12:20:57;;;;;;;11.48;5.60;;;9.70;90.90;;;;;;5083285;28;20036;-77
2022/11/19 12:23:28;;;;;;;17.00;6.68;;;9.60;90.50;;;;;;5091463;28;20024;-75
2022/11/19 12:26:21;;;;;;;12.45;5.80;;;9.40;91.00;;;;;;5077887;28;20024;-78
2022/11/19 12:28:54;;;;;;;11.52;5.30;;;9.30;91.00;;;;;;5089087;28;20028;-76
2022/11/19 12:31:28;;;;;;;12.93;6.10;;;9.30;90.70;;;;;;5089145;28;20085;-76
2022/11/19 12:34:02;;;;;;;17.20;7.35;;;9.40;90.90;;;;;;5080532;28;20030;-78
2022/11/19 12:36:58;;;;;;;16.35;5.78;;;9.50;91.70;;;;;;5085817;28;20020;-76
2022/11/19 12:40:01;;;;;;;23.80;8.73;;;9.70;89.80;;;;;;5083000;28;20052;-76
2022/11/19 12:42:49;;;;;;;15.65;6.45;;;9.60;90.60;;;;;;5090627;28;20056;-78
2022/11/19 12:45:42;;;;;;;12.25;5.10;;;9.70;90.80;;;;;;5078682;28;20031;-77
2022/11/19 12:48:33;;;;;;;8.80;3.80;;;9.80;90.10;;;;;;5087646;28;20478;-77
2022/11/19 12:51:16;;;;;;;9.07;4.43;;;9.60;89.60;;;;;;5087574;28;20059;-76
2022/11/19 12:53:51;;;;;;;9.55;4.53;;;9.60;89.40;;;;;;5090127;28;20017;-78
2022/11/19 12:56:19;;;;;;;14.23;6.28;;;9.60;89.90;;;;;;5092298;28;20030;-77
2022/11/19 12:59:09;;;;;;;15.27;6.43;;;9.50;90.10;;;;;;5088917;28;20021;-76
2022/11/19 13:01:39;;;;;;;8.27;4.60;;;9.40;91.00;;;;;;5089641;28;20027;-76
2022/11/19 13:04:17;;;;;;;8.25;4.35;;;9.20;90.10;;;;;;5075208;28;20048;-77
2022/11/19 13:06:58;;;;;;;7.65;4.10;;;9.20;91.20;;;;;;5088817;28;20023;-76
2022/11/19 13:09:33;;;;;;;7.32;3.92;;;9.00;90.70;;;;;;5084389;28;20109;-79
2022/11/19 13:12:04;;;;;;;8.88;3.83;;;8.80;90.60;;;;;;5087689;28;20019;-78
2022/11/19 13:14:38;;;;;;;9.60;3.90;;;8.60;90.90;;;;;;5109115;28;20021;-78
2022/11/19 13:17:06;;;;;;;9.43;3.90;;;8.30;90.80;;;;;;5091832;28;20016;-78
2022/11/19 13:19:37;;;;;;;8.52;3.58;;;7.90;92.00;;;;;;5091530;28;20495;-77
2022/11/19 13:22:17;;;;;;;9.82;4.05;;;7.70;92.20;;;;;;5086828;28;20019;-76
2022/11/19 13:24:48;;;;;;;7.35;3.75;;;7.50;92.70;;;;;;5089927;28;20487;-75